• Join FlightAware (Why Join?)
  • Login
  • US Flag 
03:59AM EDT


 

Airport Tracker/Info


-or-


 

Live Flight TrackerFlight Track Log ✈ N319EE ✈ 26-Dec-2013 ✈ KROC - KAUG

Flight Track Log - Related Links

Times and Time Zones

All times are in EST time to prevent confusion due to time zone crossing. See the N319EE flight status page for this flight to view local times or setup timezone preferences in your user account.

Time Position Orientation Groundspeed Altitude Reporting Facility
EST Latitude Longitude Course Direction KTS MPH feet Rate Location/Type
08:50AM 43.0672 -77.6828 169° South 177 204 3,100  Level Cleveland Center
08:50AM 43.0708 -77.6869 320° Northwest 202 232 3,000 1,680 Descending Cleveland Center
08:51AM 43.0725 -77.6136 88° East 207 238 4,900 1,980 Climbing Cleveland Center
08:52AM 43.0886 -77.5372 74° East 208 239 7,100 1,980 Climbing Cleveland Center
08:53AM 43.1039 -77.4594 75° East 210 242 9,100 1,980 Climbing Cleveland Center
08:54AM 43.1228 -77.3614 75° East 220 253 11,300 2,040 Climbing Cleveland Center
08:55AM 43.1394 -77.2742 75° East 232 267 13,400 1,920 Climbing Cleveland Center
08:56AM 43.1569 -77.1875 75° East 236 272 15,300 1,800 Climbing Cleveland Center
08:57AM 43.1742 -77.0981 75° East 241 277 17,200 1,500 Climbing Cleveland Center
08:58AM 43.1922 -77.0069 75° East 245 282 18,500 1,500 Climbing Cleveland Center
08:59AM 43.2117 -76.9025 76° East 260 299 20,400 1,200 Climbing Cleveland Center
09:00AM 43.2333 -76.7967 74° East 281 323 21,000 240 Climbing Cleveland Center
09:01AM 43.2539 -76.6742 77° East 318 366 21,000  Level Cleveland Center
09:02AM 43.2786 -76.5472 75° East 339 390 21,000  Level Cleveland Center
09:03AM 43.3083 -76.3947 75° East 345 397 21,000  Level Cleveland Center
09:04AM 43.3261 -76.2919 77° East 350 403 21,000  Level Boston Center
09:05AM 43.3508 -76.1622 75° East 351 404 21,000  Level Boston Center
09:06AM 43.3739 -76.0311 76° East 353 406 21,000 120 Level Boston Center
09:07AM 43.3975 -75.9014 76° East 350 403 21,300 660 Climbing Boston Center
09:08AM 43.4203 -75.7781 76° East 338 389 22,400 960 Climbing Boston Center
09:09AM 43.4419 -75.6589 76° East 323 372 23,300 1,020 Climbing Boston Center
09:10AM 43.4628 -75.5394 76° East 320 368 24,600 840 Climbing Boston Center
09:11AM 43.4828 -75.4200 77° East 319 367 25,000 180 Climbing Boston Center
09:12AM 43.5044 -75.2889 77° East 342 394 25,000  Level Boston Center
09:13AM 43.5281 -75.1547 76° East 353 406 25,000  Level Boston Center
09:14AM 43.5514 -75.0197 77° East 358 412 25,000  Level Boston Center
09:15AM 43.5750 -74.8842 76° East 362 417 25,000  Level Boston Center
09:16AM 43.5978 -74.7478 77° East 365 420 25,000  Level Boston Center
09:17AM 43.6214 -74.6108 77° East 367 422 25,000  Level Boston Center
09:19AM 43.6436 -74.4764 77° East 363 418 25,000  Level Boston Center
09:20AM 43.6661 -74.3408 77° East 362 417 25,000  Level Boston Center
09:21AM 43.6939 -74.1781 77° East 363 418 25,000  Level Boston Center
09:22AM 43.7156 -74.0428 77° East 363 418 25,000  Level Boston Center
09:23AM 43.7381 -73.9075 77° East 362 417 25,000  Level Boston Center
09:24AM 43.7597 -73.7711 78° East 363 418 25,000  Level Boston Center
09:25AM 43.7808 -73.6428 77° East 361 415 25,000  Level Boston Center
09:26AM 43.8028 -73.5069 77° East 362 417 25,000  Level Boston Center
09:27AM 43.8236 -73.3714 78° East 362 417 25,000  Level Boston Center
09:28AM 43.8444 -73.2358 78° East 363 418 25,000  Level Boston Center
09:29AM 43.8700 -73.0728 78° East 363 418 25,000  Level Boston Center
09:30AM 43.8872 -72.9556 78° East 361 415 25,000  Level Boston Center
09:31AM 43.9089 -72.8178 78° East 364 419 25,000  Level Boston Center
09:32AM 43.9289 -72.6842 78° East 358 412 25,000  Level Boston Center
09:33AM 43.9517 -72.5314 78° East 362 417 25,000  Level Boston Center
09:34AM 43.9714 -72.3942 79° East 363 418 25,000  Level Boston Center
09:35AM 43.9914 -72.2575 78° East 363 418 25,000 -180 Level Boston Center
09:36AM 44.0136 -72.1058 78° East 365 420 24,700 -660 Descending Boston Center
09:37AM 44.0339 -71.9667 78° East 367 422 23,700 -900 Descending Boston Center
09:38AM 44.0517 -71.8411 79° East 372 428 22,900 -960 Descending Boston Center
09:39AM 44.0711 -71.7039 79° East 367 422 21,800 -1,080 Descending Boston Center
09:40AM 44.0908 -71.5661 79° East 364 419 20,700 -1,260 Descending Boston Center
09:41AM 44.1106 -71.4183 79° East 366 421 19,300 -1,380 Descending Boston Center
09:42AM 44.1292 -71.2800 79° East 364 419 17,900 -1,320 Descending Boston Center
09:43AM 44.1492 -71.1339 79° East 350 403 16,700 -1,440 Descending Boston Center
09:44AM 44.1669 -70.9967 80° East 337 388 15,100 -1,500 Descending Boston Center
09:45AM 44.1844 -70.8706 79° East 333 383 13,700 -1,320 Descending Boston Center
09:46AM 44.2006 -70.7458 80° East 328 377 12,500 -1,200 Descending Boston Center
09:47AM 44.2158 -70.6267 80° East 317 365 11,300 -1,440 Descending Boston Center
09:48AM 44.2044 -70.5203 98° East 277 319 9,700 -1,620 Descending Boston Center
09:49AM 44.1906 -70.4172 101° East 271 312 8,100 -1,440 Descending Boston Center
09:50AM 44.1769 -70.3114 100° East 260 299 6,800 -1,260 Descending Boston Center
09:51AM 44.1644 -70.2197 101° East 244 281 5,500 -1,320 Descending Boston Center
09:52AM 44.1525 -70.1275 100° East 242 278 4,200 -1,140 Descending Boston Center
09:53AM 44.1408 -70.0411 101° East 229 264 3,300 -600 Descending Boston Center
09:54AM 44.1297 -69.9603 101° East 217 250 3,000 -180 Descending Boston Center
09:55AM 44.1206 -69.8872 100° East 196 226 3,000  Level Boston Center
09:56AM 44.1097 -69.8092 101° East 193 222 3,000  Level Boston Center
09:57AM 44.1211 -69.7336 78° East 204 235 3,000 -60 Level Boston Center
09:58AM 44.1589 -69.6897 40° Northeast 192 221 2,900 -300 Descending Boston Center
09:59AM 44.2056 -69.7175 337° Northwest 183 211 2,400 -540 Descending Boston Center
10:00AM 44.2500 -69.7489 333° Northwest 181 208 1,900 -840 Descending Boston Center
10:01AM 44.2967 -69.7825 333° Northwest 176 203 800 -660 Descending Boston Center
10:02AM 44.3286 -69.8033 335° Northwest 167 192 600 -240 Descending Boston Center